Time;durP1;ratioP1;P1;durP2;ratioP2;P2;SDS_P1;SDS_P2;PMS_P1;PMS_P2;Temp;Humidity;BMP_temperature;BMP_pressure;BME280_temperature;BME280_humidity;BME280_pressure;Samples;Min_cycle;Max_cycle;Signal;HPM_P1;HPM_P2
2022/07/21 00:00:27;;;;;;;14.27;9.20;;;22.70;99.90;;;;;;5033591;28;20043;-62
2022/07/21 00:02:56;;;;;;;18.10;10.02;;;22.70;99.90;;;;;;5060506;28;20048;-62
2022/07/21 00:05:23;;;;;;;19.73;10.23;;;22.80;99.90;;;;;;5070453;28;20036;-62
2022/07/21 00:07:51;;;;;;;17.27;8.88;;;22.90;99.90;;;;;;5062542;28;20055;-62
2022/07/21 00:10:19;;;;;;;15.07;8.95;;;23.10;99.90;;;;;;5069535;28;20040;-62
2022/07/21 00:12:46;;;;;;;18.33;9.00;;;23.10;99.90;;;;;;5070411;28;20401;-62
2022/07/21 00:15:15;;;;;;;16.67;9.25;;;23.10;99.90;;;;;;5067008;28;20047;-62
2022/07/21 00:17:42;;;;;;;18.00;9.98;;;23.10;99.90;;;;;;5074070;28;20045;-62
2022/07/21 00:20:10;;;;;;;13.00;9.32;;;23.10;99.90;;;;;;5073822;28;20440;-62
2022/07/21 00:22:38;;;;;;;14.27;9.23;;;23.20;99.90;;;;;;5073767;28;20400;-62
2022/07/21 00:25:06;;;;;;;14.20;8.95;;;23.20;99.90;;;;;;5051934;28;20053;-62
2022/07/21 00:27:33;;;;;;;11.85;8.07;;;23.20;99.90;;;;;;5069698;28;20048;-62
2022/07/21 00:30:00;;;;;;;12.20;8.75;;;23.20;99.90;;;;;;5073613;28;20502;-62
2022/07/21 00:32:27;;;;;;;14.63;9.35;;;23.20;99.90;;;;;;5073210;28;20044;-62
2022/07/21 00:35:02;;;;;;;19.20;9.60;;;23.20;99.90;;;;;;5073530;28;20511;-62
2022/07/21 00:37:29;;;;;;;16.65;9.65;;;23.20;99.90;;;;;;5073866;28;20044;-62
2022/07/21 00:39:56;;;;;;;15.00;9.65;;;23.10;99.90;;;;;;5073655;28;20060;-62
2022/07/21 00:42:25;;;;;;;14.48;8.73;;;23.10;99.90;;;;;;5065304;28;20048;-62
2022/07/21 00:44:52;;;;;;;12.52;9.15;;;23.10;99.90;;;;;;5070535;28;20060;-62
2022/07/21 00:47:22;;;;;;;;;;;23.10;99.90;;;;;;5074047;28;20063;-62
2022/07/21 00:49:50;;;;;;;14.30;9.45;;;23.10;99.90;;;;;;5072257;28;19931;-62
2022/07/21 00:52:17;;;;;;;17.40;9.60;;;23.10;99.90;;;;;;5073583;28;20070;-62
2022/07/21 00:54:44;;;;;;;14.30;8.90;;;23.00;99.90;;;;;;5067083;28;20498;-62
2022/07/21 00:57:11;;;;;;;17.63;10.15;;;23.00;99.90;;;;;;5073426;28;20513;-62
2022/07/21 00:59:39;;;;;;;14.15;9.85;;;22.90;99.90;;;;;;5073610;28;20044;-62
2022/07/21 01:02:06;;;;;;;15.80;9.98;;;22.80;99.90;;;;;;5071672;28;20048;-62
2022/07/21 01:04:33;;;;;;;18.15;10.15;;;22.50;99.90;;;;;;5068937;28;20094;-62
2022/07/21 01:07:01;;;;;;;18.40;11.23;;;22.50;99.90;;;;;;5073277;28;20524;-62
2022/07/21 01:09:28;;;;;;;13.45;9.98;;;22.40;99.90;;;;;;5073412;28;20036;-62
2022/07/21 01:11:56;;;;;;;15.32;9.52;;;22.40;99.90;;;;;;5067229;28;20133;-62
2022/07/21 01:14:23;;;;;;;14.85;9.77;;;22.30;99.90;;;;;;5073163;28;20048;-62
2022/07/21 01:16:51;;;;;;;18.23;9.65;;;22.30;99.90;;;;;;5073186;28;20052;-62
2022/07/21 01:19:18;;;;;;;16.92;8.98;;;22.30;99.90;;;;;;5051792;28;20082;-62
2022/07/21 01:21:47;;;;;;;14.98;9.30;;;22.30;99.90;;;;;;5070017;28;20049;-62
2022/07/21 01:24:14;;;;;;;17.17;9.98;;;22.30;99.90;;;;;;5073035;28;20055;-62
2022/07/21 01:26:42;;;;;;;14.80;9.70;;;22.30;99.90;;;;;;5072349;28;20048;-61
2022/07/21 01:29:11;;;;;;;14.48;9.73;;;22.30;99.90;;;;;;5067748;28;20044;-62
2022/07/21 01:31:40;;;;;;;14.60;10.75;;;22.30;99.90;;;;;;5072324;28;20041;-62
2022/07/21 01:34:07;;;;;;;16.45;9.60;;;22.20;99.90;;;;;;5072813;28;20511;-62
2022/07/21 01:36:35;;;;;;;17.83;11.10;;;22.20;99.90;;;;;;5065769;28;20045;-62
2022/07/21 01:41:47;;;;;;;12.05;9.82;;;22.10;99.90;;;;;;5069605;28;19921;-62
2022/07/21 01:44:16;;;;;;;17.48;10.68;;;22.10;99.90;;;;;;5069403;28;20132;-62
2022/07/21 01:46:44;;;;;;;;;;;22.00;99.90;;;;;;5072878;28;20048;-61
2022/07/21 01:49:12;;;;;;;14.05;9.27;;;22.10;99.90;;;;;;5069050;28;19920;-61
2022/07/21 01:51:39;;;;;;;14.60;9.98;;;22.00;99.90;;;;;;5071992;28;20400;-61
2022/07/21 01:54:06;;;;;;;;;;;22.00;99.90;;;;;;5073079;28;20044;-61
2022/07/21 01:56:35;;;;;;;13.10;9.60;;;21.90;99.90;;;;;;5072298;28;19966;-61
2022/07/21 01:59:03;;;;;;;17.80;10.00;;;21.80;99.90;;;;;;5054124;28;20048;-62
2022/07/21 02:01:31;;;;;;;15.05;10.23;;;21.80;99.90;;;;;;5072038;28;20036;-61
2022/07/21 02:04:01;;;;;;;16.08;10.88;;;21.80;99.90;;;;;;5071998;28;20063;-61
2022/07/21 02:06:28;;;;;;;14.80;9.60;;;21.70;99.90;;;;;;5068528;28;20045;-61
2022/07/21 02:08:56;;;;;;;16.45;10.68;;;21.60;99.90;;;;;;5052906;28;20041;-62
2022/07/21 02:11:23;;;;;;;13.73;10.05;;;21.60;99.90;;;;;;5071830;28;20109;-61
2022/07/21 02:13:49;;;;;;;16.55;11.25;;;21.50;99.90;;;;;;5072281;28;20040;-61
2022/07/21 02:16:16;;;;;;;15.40;11.00;;;21.40;99.90;;;;;;5069401;28;20049;-61
2022/07/21 02:18:44;;;;;;;13.77;10.30;;;21.40;99.90;;;;;;5072061;28;20075;-61
2022/07/21 02:21:11;;;;;;;15.18;9.73;;;21.40;99.90;;;;;;5071476;28;20044;-61
2022/07/21 02:23:37;;;;;;;22.23;11.10;;;21.30;99.90;;;;;;5065855;28;20060;-61
2022/07/21 02:26:04;;;;;;;14.05;9.75;;;21.30;99.90;;;;;;5042533;28;20053;-61
2022/07/21 02:28:31;;;;;;;17.52;11.68;;;21.30;99.90;;;;;;5052190;28;20060;-61
2022/07/21 02:30:58;;;;;;;14.73;10.32;;;21.10;99.90;;;;;;5051449;28;20037;-61
2022/07/21 02:33:25;;;;;;;15.30;11.07;;;21.20;99.90;;;;;;5065993;28;20074;-61
2022/07/21 02:35:52;;;;;;;13.90;10.32;;;21.20;99.90;;;;;;5053599;28;20048;-61
2022/07/21 02:38:18;;;;;;;15.27;11.02;;;21.30;99.90;;;;;;5070823;28;20045;-62
2022/07/21 02:40:45;;;;;;;15.95;9.65;;;21.20;99.90;;;;;;5069793;28;20049;-61
2022/07/21 02:43:12;;;;;;;16.75;11.43;;;21.10;99.90;;;;;;5071548;28;20428;-61
2022/07/21 02:45:41;;;;;;;21.95;11.00;;;21.10;99.90;;;;;;5071523;28;20052;-62
2022/07/21 02:48:10;;;;;;;16.17;11.10;;;21.10;99.90;;;;;;5071623;28;20051;-61
2022/07/21 02:50:40;;;;;;;18.25;10.75;;;21.10;99.90;;;;;;5063767;28;20048;-61
2022/07/21 02:53:12;;;;;;;16.25;10.82;;;21.10;99.90;;;;;;5063568;28;20120;-61
2022/07/21 02:55:42;;;;;;;16.15;10.25;;;21.00;99.90;;;;;;5071324;28;21665;-62
2022/07/21 02:58:28;;;;;;;19.27;11.23;;;21.00;99.90;;;;;;5071655;28;20059;-61
2022/07/21 03:00:58;;;;;;;17.80;10.82;;;20.90;99.90;;;;;;5063921;28;20063;-61
2022/07/21 03:03:34;;;;;;;18.55;11.55;;;20.90;99.90;;;;;;5071422;28;20535;-61
2022/07/21 03:06:02;;;;;;;16.27;11.65;;;20.90;99.90;;;;;;5071478;28;20116;-61
2022/07/21 03:08:30;;;;;;;16.77;10.77;;;20.80;99.90;;;;;;5070344;28;20045;-61
2022/07/21 03:10:57;;;;;;;16.90;10.55;;;20.80;99.90;;;;;;5070859;28;20047;-61
2022/07/21 03:13:24;;;;;;;16.30;11.25;;;20.90;99.90;;;;;;5071360;28;20051;-61
2022/07/21 03:15:51;;;;;;;18.10;11.52;;;20.80;99.90;;;;;;5067746;28;20045;-62
2022/07/21 03:18:18;;;;;;;24.80;11.50;;;20.80;99.90;;;;;;5071017;28;20044;-61
2022/07/21 03:20:45;;;;;;;15.82;11.02;;;20.80;99.90;;;;;;5070971;28;20053;-61
2022/07/21 03:23:12;;;;;;;13.52;10.57;;;20.80;99.90;;;;;;5071421;28;20493;-61
2022/07/21 03:25:39;;;;;;;18.33;11.60;;;20.60;99.90;;;;;;5067372;28;20059;-61
2022/07/21 03:28:06;;;;;;;16.73;10.77;;;20.50;99.90;;;;;;5051009;28;20052;-61
2022/07/21 03:30:34;;;;;;;16.67;11.73;;;20.50;99.90;;;;;;5050740;28;20037;-61
2022/07/21 03:33:00;;;;;;;;;;;20.40;99.90;;;;;;5051402;28;20037;-61
2022/07/21 03:35:27;;;;;;;18.38;10.88;;;20.40;99.90;;;;;;5065806;28;19920;-61
2022/07/21 03:37:57;;;;;;;17.17;11.48;;;20.20;99.90;;;;;;5070814;28;20037;-61
2022/07/21 03:40:26;;;;;;;18.98;12.77;;;20.20;99.90;;;;;;5070755;28;20040;-61
2022/07/21 03:42:56;;;;;;;19.70;11.57;;;20.10;99.90;;;;;;5062071;28;20045;-61
2022/07/21 03:45:23;;;;;;;15.32;11.77;;;20.10;99.90;;;;;;5063620;28;20044;-61
2022/07/21 03:47:51;;;;;;;18.05;11.88;;;20.10;99.90;;;;;;5066084;28;20040;-61
2022/07/21 03:50:18;;;;;;;18.13;12.63;;;20.10;99.90;;;;;;5072612;28;20041;-61
2022/07/21 03:52:45;;;;;;;17.38;11.50;;;20.20;99.90;;;;;;5062898;28;20037;-61
2022/07/21 03:55:17;;;;;;;18.90;11.38;;;20.20;99.90;;;;;;5074558;28;20032;-61
2022/07/21 03:57:49;;;;;;;14.32;11.60;;;20.40;99.90;;;;;;5074803;28;20040;-62
2022/07/21 04:00:23;;;;;;;17.42;11.63;;;20.20;99.90;;;;;;5065187;28;20421;-61
2022/07/21 04:02:50;;;;;;;20.38;11.45;;;20.30;99.90;;;;;;5072645;28;20044;-61
2022/07/21 04:05:18;;;;;;;20.40;11.45;;;20.30;99.90;;;;;;5071334;28;20059;-61
2022/07/21 04:07:47;;;;;;;19.17;11.95;;;20.30;99.90;;;;;;5053106;28;20496;-61
2022/07/21 04:10:16;;;;;;;19.15;12.35;;;20.20;99.90;;;;;;5064855;28;20440;-61
2022/07/21 04:12:43;;;;;;;18.73;12.27;;;20.20;99.90;;;;;;5050090;28;20068;-61
2022/07/21 04:15:11;;;;;;;19.05;11.95;;;20.20;99.90;;;;;;5070594;28;20401;-61
2022/07/21 04:17:39;;;;;;;17.50;11.00;;;20.20;99.90;;;;;;5063895;28;20113;-61
2022/07/21 04:20:07;;;;;;;16.52;12.02;;;20.20;99.90;;;;;;5064442;28;20056;-61
2022/07/21 04:22:34;;;;;;;21.67;12.15;;;20.10;99.90;;;;;;5047007;28;20045;-61
2022/07/21 04:25:02;;;;;;;21.90;11.82;;;20.10;99.90;;;;;;5054132;28;20044;-61
2022/07/21 04:27:29;;;;;;;16.50;11.40;;;20.20;99.90;;;;;;5063400;28;20048;-61
2022/07/21 04:29:56;;;;;;;16.45;12.18;;;20.20;99.90;;;;;;5073728;28;20040;-61
2022/07/21 04:32:23;;;;;;;17.05;11.38;;;20.30;99.90;;;;;;5074063;28;20528;-62
2022/07/21 04:34:49;;;;;;;17.92;12.20;;;20.40;99.90;;;;;;5066521;28;20044;-62
2022/07/21 04:37:16;;;;;;;15.32;11.63;;;20.40;99.90;;;;;;5071384;28;20041;-61
2022/07/21 04:39:44;;;;;;;16.17;11.88;;;20.40;99.90;;;;;;5073927;28;20087;-61
2022/07/21 04:42:18;;;;;;;18.65;12.48;;;20.40;99.90;;;;;;5072013;28;20509;-61
2022/07/21 04:44:45;;;;;;;16.45;12.07;;;20.40;99.90;;;;;;5070808;28;20049;-61
2022/07/21 04:47:12;;;;;;;20.35;13.35;;;20.50;99.90;;;;;;5064680;28;20051;-61
2022/07/21 04:49:39;;;;;;;17.58;12.10;;;20.60;99.90;;;;;;5063016;28;20578;-61
2022/07/21 04:52:06;;;;;;;15.30;11.55;;;20.60;99.90;;;;;;5064165;28;20036;-61
2022/07/21 04:54:32;;;;;;;19.27;12.38;;;20.60;99.90;;;;;;5065411;28;20430;-61
2022/07/21 04:57:02;;;;;;;14.85;11.32;;;20.60;99.90;;;;;;5044674;28;20048;-61
2022/07/21 04:59:30;;;;;;;19.13;11.77;;;20.70;99.90;;;;;;5064058;28;20033;-61
2022/07/21 05:01:57;;;;;;;22.08;11.80;;;20.80;99.90;;;;;;5059264;28;20033;-62
2022/07/21 05:04:24;;;;;;;19.33;11.73;;;20.80;99.90;;;;;;5067180;28;20124;-61
2022/07/21 05:06:52;;;;;;;18.13;12.05;;;20.80;99.90;;;;;;5052914;28;20456;-61
2022/07/21 05:09:19;;;;;;;18.80;12.55;;;20.90;99.90;;;;;;5035913;28;20043;-62
2022/07/21 05:11:46;;;;;;;19.65;12.02;;;21.00;99.90;;;;;;5069917;28;20044;-62
2022/07/21 05:14:13;;;;;;;18.80;11.75;;;21.00;99.90;;;;;;5073357;28;20048;-62
2022/07/21 05:16:42;;;;;;;25.73;12.07;;;21.10;99.90;;;;;;5073114;28;20044;-62
2022/07/21 05:19:08;;;;;;;16.45;9.70;;;21.00;99.90;;;;;;5071871;28;20059;-62
2022/07/21 05:21:35;;;;;;;18.45;10.63;;;21.10;99.90;;;;;;5072717;28;20058;-62
2022/07/21 05:24:02;;;;;;;17.70;11.48;;;21.10;99.90;;;;;;5073286;28;20055;-62
2022/07/21 05:26:29;;;;;;;16.13;10.20;;;21.20;99.90;;;;;;5061928;28;20044;-62
2022/07/21 05:28:56;;;;;;;16.42;9.93;;;21.20;99.90;;;;;;5063192;28;20044;-62
2022/07/21 05:31:23;;;;;;;14.20;9.20;;;21.30;99.90;;;;;;5066350;28;20107;-62
2022/07/21 05:33:50;;;;;;;20.13;10.75;;;21.40;99.90;;;;;;5069940;28;20091;-62
2022/07/21 05:36:18;;;;;;;16.60;10.10;;;21.50;99.90;;;;;;5070607;28;20032;-62
2022/07/21 05:38:46;;;;;;;20.92;10.50;;;21.60;99.90;;;;;;5067546;28;20060;-62
2022/07/21 05:41:13;;;;;;;16.77;8.77;;;21.70;99.90;;;;;;5072496;28;20040;-62
2022/07/21 05:43:39;;;;;;;16.42;9.70;;;21.80;99.90;;;;;;5066908;28;20400;-62
2022/07/21 05:46:06;;;;;;;13.98;9.13;;;22.00;99.90;;;;;;5054692;28;20485;-62
2022/07/21 05:48:33;;;;;;;17.83;8.57;;;22.10;99.90;;;;;;5072282;28;20096;-63
2022/07/21 05:51:00;;;;;;;13.38;8.85;;;22.30;99.90;;;;;;5064542;28;20056;-63
2022/07/21 05:53:27;;;;;;;14.38;9.07;;;22.40;99.90;;;;;;5072175;28;20567;-62
2022/07/21 05:56:04;;;;;;;16.23;8.80;;;22.50;99.90;;;;;;5071879;28;20055;-70
2022/07/21 05:58:32;;;;;;;12.75;9.07;;;22.70;99.90;;;;;;5023489;28;20418;-63
2022/07/21 06:01:37;;;;;;;14.00;8.70;;;22.90;99.90;;;;;;4983929;28;20048;-63
2022/07/21 06:04:04;;;;;;;14.20;9.10;;;22.90;99.90;;;;;;5012846;28;20073;-63
2022/07/21 06:06:31;;;;;;;11.80;8.85;;;23.00;99.90;;;;;;5011961;28;20046;-63
2022/07/21 06:08:59;;;;;;;14.82;9.20;;;23.00;99.90;;;;;;5016952;28;20037;-63
2022/07/21 06:11:27;;;;;;;18.92;9.55;;;23.00;99.90;;;;;;5034544;28;20056;-63
2022/07/21 06:14:02;;;;;;;17.88;9.02;;;23.00;99.90;;;;;;5032412;28;20411;-63
2022/07/21 06:16:28;;;;;;;;;;;23.20;99.90;;;;;;5028656;28;20502;-63
2022/07/21 06:18:55;;;;;;;24.42;10.13;;;23.20;99.90;;;;;;5040923;28;19925;-63
2022/07/21 06:21:23;;;;;;;14.00;8.88;;;23.20;99.90;;;;;;5051577;28;20073;-63
2022/07/21 06:23:49;;;;;;;17.17;9.15;;;23.20;99.90;;;;;;5052050;28;20513;-62
2022/07/21 06:26:17;;;;;;;18.75;8.77;;;23.10;99.90;;;;;;5043431;28;20045;-62
2022/07/21 06:28:44;;;;;;;14.60;7.43;;;22.90;99.90;;;;;;5038006;28;20049;-62
2022/07/21 06:31:11;;;;;;;9.65;6.53;;;22.80;99.90;;;;;;5051298;28;20409;-63
2022/07/21 06:33:38;;;;;;;9.90;6.22;;;22.80;99.90;;;;;;5048964;28;20513;-63
2022/07/21 06:36:06;;;;;;;12.90;6.90;;;22.80;99.90;;;;;;5031832;28;20046;-63
2022/07/21 06:38:33;;;;;;;9.32;6.57;;;22.90;99.90;;;;;;5031828;28;20041;-63
2022/07/21 06:41:00;;;;;;;14.23;6.47;;;23.00;99.90;;;;;;5031411;28;20048;-63
2022/07/21 06:43:27;;;;;;;17.50;6.70;;;23.00;99.90;;;;;;5031720;28;20041;-62
2022/07/21 06:45:56;;;;;;;13.30;7.22;;;23.00;99.90;;;;;;5040914;28;20041;-63
2022/07/21 06:48:24;;;;;;;16.27;7.40;;;23.00;99.90;;;;;;5051417;28;20041;-63
2022/07/21 06:50:54;;;;;;;12.32;7.18;;;22.90;99.90;;;;;;5051219;28;20061;-63
2022/07/21 06:53:23;;;;;;;17.88;7.50;;;23.00;99.90;;;;;;5042319;28;20099;-63
2022/07/21 06:55:53;;;;;;;12.75;7.43;;;22.90;99.90;;;;;;5043085;28;20055;-63
2022/07/21 06:58:29;;;;;;;12.55;7.85;;;23.00;99.90;;;;;;5051456;28;20036;-63
2022/07/21 07:01:04;;;;;;;13.88;8.13;;;23.20;99.90;;;;;;5047867;28;20045;-63
2022/07/21 07:03:32;;;;;;;13.77;8.45;;;23.20;99.90;;;;;;5043274;28;20041;-63
2022/07/21 07:06:01;;;;;;;12.70;8.25;;;23.30;99.90;;;;;;5051407;28;20051;-63
2022/07/21 07:08:28;;;;;;;13.25;8.15;;;23.40;99.90;;;;;;5049145;28;20068;-63
2022/07/21 07:10:55;;;;;;;13.45;7.82;;;23.40;99.90;;;;;;5039689;28;20049;-63
2022/07/21 07:13:21;;;;;;;15.05;9.13;;;23.40;99.90;;;;;;5051292;28;20056;-63
2022/07/21 07:16:08;;;;;;;14.82;9.05;;;23.50;99.90;;;;;;5051189;28;20090;-63
2022/07/21 07:18:37;;;;;;;19.52;8.48;;;23.50;99.90;;;;;;5039911;28;20046;-63
2022/07/21 07:21:04;;;;;;;10.82;8.05;;;23.60;99.90;;;;;;5042156;28;20565;-63
2022/07/21 07:23:37;;;;;;;13.30;8.38;;;23.70;99.90;;;;;;5051168;28;20127;-63
2022/07/21 07:26:03;;;;;;;;;;;23.80;99.90;;;;;;5055651;28;20048;-63
2022/07/21 07:28:30;;;;;;;14.43;8.40;;;23.90;99.90;;;;;;5042662;28;19929;-63
2022/07/21 07:30:57;;;;;;;17.60;8.13;;;23.90;99.90;;;;;;5046612;28;20043;-63
2022/07/21 07:33:24;;;;;;;11.85;8.40;;;23.90;99.90;;;;;;5054983;28;20048;-62
2022/07/21 07:35:52;;;;;;;10.23;8.38;;;23.80;99.90;;;;;;5039449;28;20033;-62
2022/07/21 07:38:18;;;;;;;;;;;23.80;99.90;;;;;;5047230;28;20048;-63
2022/07/21 07:40:45;;;;;;;11.07;8.65;;;23.90;99.90;;;;;;5054752;28;20027;-62
2022/07/21 07:43:12;;;;;;;10.88;8.73;;;23.80;99.90;;;;;;5046689;28;20096;-62
2022/07/21 07:45:39;;;;;;;18.77;9.88;;;23.80;99.90;;;;;;5039733;28;20041;-63
2022/07/21 07:48:06;;;;;;;14.27;8.45;;;23.90;99.90;;;;;;5034980;28;20483;-63
2022/07/21 07:50:33;;;;;;;11.98;8.60;;;23.80;99.90;;;;;;5034502;28;20457;-62
2022/07/21 07:53:00;;;;;;;15.40;8.82;;;23.80;99.90;;;;;;5037028;28;20044;-63
2022/07/21 07:55:27;;;;;;;;;;;23.70;99.90;;;;;;5046847;28;20044;-63
2022/07/21 07:57:53;;;;;;;14.10;9.18;;;23.60;99.90;;;;;;5054454;28;19927;-63
2022/07/21 08:00:20;;;;;;;13.70;9.85;;;23.60;99.90;;;;;;5047995;28;20042;-63
2022/07/21 08:03:07;;;;;;;16.02;10.27;;;23.70;99.90;;;;;;5035220;28;20053;-62
2022/07/21 08:05:34;;;;;;;15.10;10.55;;;23.60;99.90;;;;;;5034818;28;20041;-63
2022/07/21 08:08:00;;;;;;;14.30;10.05;;;23.50;99.90;;;;;;5035976;28;20049;-63
2022/07/21 08:10:27;;;;;;;18.25;11.40;;;23.50;99.90;;;;;;5045681;28;20052;-63
2022/07/21 08:13:08;;;;;;;16.30;10.50;;;23.50;99.90;;;;;;5054582;28;20041;-63
2022/07/21 08:15:36;;;;;;;17.33;10.93;;;23.50;99.90;;;;;;5054598;28;20045;-63
2022/07/21 08:18:04;;;;;;;15.02;10.95;;;23.40;99.90;;;;;;5039865;28;20452;-63
2022/07/21 08:20:31;;;;;;;19.02;11.05;;;23.30;99.90;;;;;;5049285;28;20045;-63
2022/07/21 08:22:58;;;;;;;18.33;11.10;;;23.30;99.90;;;;;;5054081;28;20045;-63
2022/07/21 08:25:25;;;;;;;14.85;10.80;;;23.40;99.90;;;;;;5048419;28;20072;-63
2022/07/21 08:27:51;;;;;;;15.50;11.55;;;23.40;99.90;;;;;;5045856;28;20452;-63
2022/07/21 08:30:18;;;;;;;15.13;12.18;;;23.50;99.90;;;;;;5053968;28;20405;-63
2022/07/21 08:32:50;;;;;;;15.13;11.70;;;23.40;99.90;;;;;;5054095;28;20037;-63
2022/07/21 08:35:16;;;;;;;17.42;12.35;;;23.40;99.90;;;;;;5038933;28;20045;-63
2022/07/21 08:38:05;;;;;;;21.92;12.05;;;23.30;99.90;;;;;;5027854;28;20405;-63
2022/07/21 08:40:35;;;;;;;16.92;12.25;;;23.30;99.90;;;;;;5053714;28;20041;-62
2022/07/21 08:43:03;;;;;;;18.10;11.07;;;23.30;99.90;;;;;;5042546;28;20049;-63
2022/07/21 08:45:30;;;;;;;19.73;12.50;;;23.30;99.90;;;;;;5045411;28;20045;-63
2022/07/21 08:47:58;;;;;;;16.60;11.77;;;23.20;99.90;;;;;;5054134;28;20084;-63
2022/07/21 08:50:30;;;;;;;17.40;12.70;;;23.20;99.90;;;;;;5051646;28;20064;-62
2022/07/21 08:52:57;;;;;;;19.80;12.43;;;23.20;99.90;;;;;;5043216;28;20042;-63
2022/07/21 08:55:30;;;;;;;17.40;12.00;;;23.30;99.90;;;;;;5053614;28;20515;-62
2022/07/21 08:57:57;;;;;;;18.27;11.95;;;23.30;99.90;;;;;;5053459;28;20064;-63
2022/07/21 09:00:25;;;;;;;15.63;12.80;;;23.40;99.90;;;;;;5039261;28;20052;-62
2022/07/21 09:03:09;;;;;;;14.60;11.70;;;23.40;99.90;;;;;;5051791;28;20049;-63
2022/07/21 09:05:36;;;;;;;16.95;11.68;;;23.40;99.90;;;;;;5053435;28;20041;-63
2022/07/21 09:08:03;;;;;;;16.30;11.80;;;23.30;99.90;;;;;;5041995;28;20045;-62
2022/07/21 09:10:31;;;;;;;19.85;12.40;;;23.20;99.90;;;;;;5048270;28;20054;-63
2022/07/21 09:13:00;;;;;;;17.83;12.25;;;23.20;99.90;;;;;;5053325;28;20045;-62
2022/07/21 09:15:28;;;;;;;20.20;12.07;;;23.30;99.90;;;;;;5053381;28;20116;-63
2022/07/21 09:18:07;;;;;;;18.23;12.43;;;23.40;99.90;;;;;;5016204;28;20493;-63
2022/07/21 09:20:48;;;;;;;18.33;11.70;;;23.50;99.90;;;;;;5049110;28;20052;-63
2022/07/21 09:23:16;;;;;;;19.27;13.15;;;23.70;99.90;;;;;;5053313;28;20132;-63
2022/07/21 09:25:46;;;;;;;22.30;12.00;;;23.80;99.90;;;;;;5040449;28;20057;-63
2022/07/21 09:28:14;;;;;;;17.73;12.82;;;24.00;99.90;;;;;;5044461;28;20053;-63
2022/07/21 09:31:12;;;;;;;19.08;12.43;;;23.90;99.90;;;;;;5052625;28;20057;-63
2022/07/21 09:33:45;;;;;;;15.45;11.93;;;24.10;99.90;;;;;;5022172;28;20054;-63
2022/07/21 09:36:16;;;;;;;16.58;12.70;;;24.30;99.90;;;;;;5034164;28;20053;-63
2022/07/21 09:38:49;;;;;;;21.08;13.55;;;24.30;99.90;;;;;;5015462;28;20056;-63
2022/07/21 09:41:19;;;;;;;18.70;12.95;;;24.30;99.90;;;;;;5032313;28;20136;-63
2022/07/21 09:43:53;;;;;;;19.20;12.65;;;24.40;99.90;;;;;;5032593;28;20045;-63
2022/07/21 09:46:29;;;;;;;17.38;12.52;;;24.40;99.90;;;;;;5044298;28;20498;-63
2022/07/21 09:49:00;;;;;;;19.80;12.98;;;24.60;99.90;;;;;;5052507;28;20556;-63
2022/07/21 09:51:46;;;;;;;16.30;12.07;;;24.50;99.90;;;;;;5047291;28;20545;-63
2022/07/21 09:54:14;;;;;;;22.73;13.00;;;24.70;99.90;;;;;;5044003;28;20037;-63
2022/07/21 09:56:44;;;;;;;16.42;12.82;;;24.80;99.90;;;;;;5052346;28;20071;-63
2022/07/21 09:59:12;;;;;;;20.05;13.35;;;25.20;99.90;;;;;;5052609;28;20041;-63
2022/07/21 10:01:39;;;;;;;15.90;12.50;;;25.80;99.90;;;;;;5037169;28;20072;-63
2022/07/21 10:04:06;;;;;;;;;;;25.70;99.90;;;;;;5044423;28;20045;-63
2022/07/21 10:06:38;;;;;;;19.05;12.90;;;25.40;99.90;;;;;;5046880;28;19921;-63
2022/07/21 10:09:07;;;;;;;16.95;12.98;;;25.30;99.90;;;;;;5031589;28;20527;-63
2022/07/21 10:11:39;;;;;;;16.58;12.85;;;25.10;99.90;;;;;;5038829;28;20521;-63
2022/07/21 10:14:12;;;;;;;19.75;13.60;;;25.20;99.90;;;;;;5010104;28;20517;-63
2022/07/21 10:16:39;;;;;;;21.15;14.38;;;25.10;99.90;;;;;;5025017;28;20792;-63
2022/07/21 10:19:36;;;;;;;18.67;13.73;;;25.00;99.90;;;;;;5031932;28;20041;-63
2022/07/21 10:22:23;;;;;;;18.80;14.45;;;25.00;99.90;;;;;;5031481;28;20033;-63
2022/07/21 10:24:51;;;;;;;20.20;13.68;;;25.10;99.90;;;;;;5029961;28;20037;-64
2022/07/21 10:27:18;;;;;;;21.75;14.05;;;25.20;99.90;;;;;;5031738;28;20045;-63
2022/07/21 10:29:53;;;;;;;21.00;14.75;;;25.20;99.90;;;;;;5014324;28;20053;-63
2022/07/21 10:32:32;;;;;;;21.63;14.23;;;25.20;99.90;;;;;;5010926;28;20041;-63
2022/07/21 10:35:01;;;;;;;21.80;13.73;;;25.40;99.90;;;;;;5041746;28;20046;-63
2022/07/21 10:37:40;;;;;;;20.30;14.73;;;25.50;99.90;;;;;;5051678;28;20037;-63
2022/07/21 10:40:13;;;;;;;20.15;14.68;;;25.60;99.90;;;;;;5051157;28;20454;-63
2022/07/21 10:42:41;;;;;;;17.70;13.02;;;25.40;99.90;;;;;;5039758;28;20469;-63
2022/07/21 10:45:30;;;;;;;18.17;13.48;;;25.30;99.90;;;;;;5051806;28;20102;-63
2022/07/21 10:47:58;;;;;;;24.85;15.00;;;25.20;99.90;;;;;;5051529;28;20057;-63
2022/07/21 10:50:50;;;;;;;24.88;14.85;;;25.20;99.90;;;;;;5043126;28;20042;-63
2022/07/21 10:53:18;;;;;;;23.50;13.95;;;25.10;99.90;;;;;;5033199;28;20486;-63
2022/07/21 10:55:52;;;;;;;25.70;15.27;;;24.90;99.90;;;;;;5031740;28;20029;-63
2022/07/21 10:58:26;;;;;;;25.77;15.45;;;24.60;99.90;;;;;;5031037;28;20048;-63
2022/07/21 11:01:19;;;;;;;23.77;16.50;;;24.50;99.90;;;;;;5039301;28;20045;-63
2022/07/21 11:04:13;;;;;;;20.00;15.40;;;24.10;99.90;;;;;;5051346;28;20123;-63
2022/07/21 11:06:40;;;;;;;26.90;16.27;;;23.90;99.90;;;;;;5051243;28;20382;-63
2022/07/21 11:09:13;;;;;;;26.65;15.95;;;23.70;99.90;;;;;;5040024;28;20045;-63
2022/07/21 11:11:58;;;;;;;23.30;16.15;;;23.60;99.90;;;;;;5042721;28;20056;-63
2022/07/21 11:14:34;;;;;;;22.13;15.80;;;23.40;99.90;;;;;;5051561;28;20405;-63
2022/07/21 11:17:03;;;;;;;26.95;16.20;;;23.20;99.90;;;;;;5047935;28;20044;-63
2022/07/21 11:19:30;;;;;;;23.95;16.77;;;23.20;99.90;;;;;;5034836;28;20465;-63
2022/07/21 11:21:59;;;;;;;26.55;15.77;;;23.10;99.90;;;;;;5049805;28;20090;-63
2022/07/21 11:24:27;;;;;;;24.75;16.40;;;23.00;99.90;;;;;;5051402;28;20045;-63
2022/07/21 11:26:55;;;;;;;27.35;16.75;;;22.90;99.90;;;;;;5033974;28;20037;-63
2022/07/21 11:29:23;;;;;;;26.27;16.20;;;22.80;99.90;;;;;;5045246;28;20049;-63
2022/07/21 11:31:50;;;;;;;23.27;16.40;;;22.80;99.90;;;;;;5050680;28;20049;-63
2022/07/21 11:34:18;;;;;;;25.35;16.65;;;22.80;99.90;;;;;;5043725;28;20044;-63
2022/07/21 11:36:46;;;;;;;29.08;16.50;;;22.70;99.90;;;;;;5042902;28;20409;-63
2022/07/21 11:39:25;;;;;;;23.90;15.30;;;22.70;99.90;;;;;;5051045;28;20040;-63
2022/07/21 11:41:53;;;;;;;;;;;22.60;99.90;;;;;;5044409;28;20041;-63
2022/07/21 11:44:25;;;;;;;23.77;16.75;;;22.50;99.90;;;;;;5042724;28;20067;-63
2022/07/21 11:46:58;;;;;;;24.30;16.80;;;22.50;99.90;;;;;;5050982;28;20056;-63
2022/07/21 11:49:25;;;;;;;23.17;16.30;;;22.50;99.90;;;;;;5051171;28;20387;-63
2022/07/21 11:52:13;;;;;;;24.80;17.25;;;22.40;99.90;;;;;;5045586;28;20387;-64
2022/07/21 11:54:46;;;;;;;26.92;16.13;;;22.30;99.90;;;;;;5047608;28;20048;-63
2022/07/21 11:57:15;;;;;;;25.73;17.50;;;22.30;99.90;;;;;;5065274;22;20052;-59
2022/07/21 11:59:43;;;;;;;24.02;15.82;;;22.30;99.90;;;;;;5041918;28;20034;-59
2022/07/21 12:02:21;;;;;;;23.48;15.45;;;22.20;99.90;;;;;;5069884;28;20041;-59
2022/07/21 12:04:51;;;;;;;21.63;15.30;;;22.10;99.90;;;;;;5070825;28;20075;-59
2022/07/21 12:07:33;;;;;;;28.05;14.65;;;22.00;99.90;;;;;;5070002;28;20040;-59
2022/07/21 12:10:05;;;;;;;20.88;14.30;;;22.00;99.90;;;;;;5061375;28;20040;-59
2022/07/21 12:12:35;;;;;;;23.45;14.23;;;21.90;99.90;;;;;;5074145;28;20123;-59
2022/07/21 12:15:30;;;;;;;21.73;14.35;;;21.80;99.90;;;;;;5074832;28;20045;-60
2022/07/21 12:18:00;;;;;;;23.45;15.38;;;21.80;99.90;;;;;;5060944;28;20041;-60
2022/07/21 12:20:33;;;;;;;20.80;13.77;;;21.80;99.90;;;;;;5065553;28;20043;-60
2022/07/21 12:23:02;;;;;;;23.05;14.05;;;21.70;99.90;;;;;;5074218;28;20515;-60
2022/07/21 12:25:34;;;;;;;19.38;14.05;;;21.60;99.90;;;;;;5068143;28;20458;-59
2022/07/21 12:28:02;;;;;;;19.90;13.63;;;21.50;99.90;;;;;;5064955;28;20036;-60
2022/07/21 12:30:36;;;;;;;21.85;14.85;;;21.50;99.90;;;;;;5073794;28;20106;-60
2022/07/21 12:33:14;;;;;;;21.73;14.00;;;21.60;99.90;;;;;;5071208;28;20045;-60
2022/07/21 12:35:43;;;;;;;25.98;15.32;;;21.60;99.90;;;;;;5059338;28;20045;-60
2022/07/21 12:38:15;;;;;;;24.13;13.98;;;21.50;99.90;;;;;;5056171;28;20070;-59
2022/07/21 12:40:46;;;;;;;22.60;15.18;;;21.60;99.90;;;;;;5073647;28;20041;-60
2022/07/21 12:43:32;;;;;;;24.48;15.05;;;21.70;99.90;;;;;;5070084;28;20053;-59
2022/07/21 12:46:10;;;;;;;22.50;14.60;;;21.70;99.90;;;;;;5065375;28;20044;-59
2022/07/21 12:48:39;;;;;;;23.48;15.15;;;21.70;99.90;;;;;;5073777;28;20060;-59